sensor_id;sensor_type;location;lat;lon;timestamp;pressure;altitude;pressure_sealevel;temperature;humidity
11448;BME280;43755;49.736;8.734;2022-12-18T00:01:37;99041.72;;;-12.17;100.00
11448;BME280;43755;49.736;8.734;2022-12-18T00:03:39;99053.47;;;-12.19;100.00
11448;BME280;43755;49.736;8.734;2022-12-18T00:05:46;99053.41;;;-12.20;100.00
11448;BME280;43755;49.736;8.734;2022-12-18T00:07:47;99046.34;;;-12.24;100.00
11448;BME280;43755;49.736;8.734;2022-12-18T00:09:49;99049.38;;;-12.17;100.00
11448;BME280;43755;49.736;8.734;2022-12-18T00:11:50;99045.81;;;-12.19;100.00
11448;BME280;43755;49.736;8.734;2022-12-18T00:13:54;99045.31;;;-12.13;100.00
11448;BME280;43755;49.736;8.734;2022-12-18T00:16:01;99045.03;;;-12.05;100.00
11448;BME280;43755;49.736;8.734;2022-12-18T00:18:05;99038.13;;;-11.92;100.00
11448;BME280;43755;49.736;8.734;2022-12-18T00:20:08;99033.75;;;-11.80;100.00
11448;BME280;43755;49.736;8.734;2022-12-18T00:22:09;99041.00;;;-11.73;100.00
11448;BME280;43755;49.736;8.734;2022-12-18T00:24:11;99040.13;;;-11.74;100.00
11448;BME280;43755;49.736;8.734;2022-12-18T00:26:14;99028.94;;;-11.76;100.00
11448;BME280;43755;49.736;8.734;2022-12-18T00:28:16;99033.75;;;-11.66;100.00
11448;BME280;43755;49.736;8.734;2022-12-18T00:30:17;99033.75;;;-11.66;100.00
11448;BME280;43755;49.736;8.734;2022-12-18T00:32:19;99043.88;;;-11.82;100.00
11448;BME280;43755;49.736;8.734;2022-12-18T00:34:21;99059.84;;;-12.12;100.00
11448;BME280;43755;49.736;8.734;2022-12-18T00:36:24;99059.41;;;-12.20;100.00
11448;BME280;43755;49.736;8.734;2022-12-18T00:38:26;99055.66;;;-12.25;100.00
11448;BME280;43755;49.736;8.734;2022-12-18T00:40:27;99061.63;;;-12.24;100.00
11448;BME280;43755;49.736;8.734;2022-12-18T00:42:28;99049.88;;;-12.35;100.00
11448;BME280;43755;49.736;8.734;2022-12-18T00:44:47;99060.59;;;-12.41;100.00
11448;BME280;43755;49.736;8.734;2022-12-18T00:46:49;99052.44;;;-12.35;100.00
11448;BME280;43755;49.736;8.734;2022-12-18T00:48:50;99048.59;;;-12.29;100.00
11448;BME280;43755;49.736;8.734;2022-12-18T00:50:52;99058.69;;;-12.30;100.00
11448;BME280;43755;49.736;8.734;2022-12-18T00:52:54;99058.50;;;-12.20;100.00
11448;BME280;43755;49.736;8.734;2022-12-18T00:54:55;99058.28;;;-12.10;100.00
11448;BME280;43755;49.736;8.734;2022-12-18T00:56:56;99055.59;;;-11.98;100.00
11448;BME280;43755;49.736;8.734;2022-12-18T00:58:58;99044.72;;;-11.96;100.00
11448;BME280;43755;49.736;8.734;2022-12-18T01:00:59;99044.00;;;-11.93;100.00
11448;BME280;43755;49.736;8.734;2022-12-18T01:03:01;99047.53;;;-11.91;100.00
11448;BME280;43755;49.736;8.734;2022-12-18T01:05:04;99039.19;;;-11.89;100.00
11448;BME280;43755;49.736;8.734;2022-12-18T01:07:07;99052.03;;;-11.87;100.00
11448;BME280;43755;49.736;8.734;2022-12-18T01:09:09;99050.78;;;-11.94;100.00
11448;BME280;43755;49.736;8.734;2022-12-18T01:11:12;99057.88;;;-12.03;100.00
11448;BME280;43755;49.736;8.734;2022-12-18T01:13:13;99048.97;;;-12.10;100.00
11448;BME280;43755;49.736;8.734;2022-12-18T01:15:16;99051.53;;;-12.10;100.00
11448;BME280;43755;49.736;8.734;2022-12-18T01:17:17;99060.16;;;-12.08;100.00
11448;BME280;43755;49.736;8.734;2022-12-18T01:19:19;99050.53;;;-12.12;100.00
11448;BME280;43755;49.736;8.734;2022-12-18T01:21:21;99055.72;;;-12.10;100.00
11448;BME280;43755;49.736;8.734;2022-12-18T01:23:26;99054.47;;;-12.17;100.00
11448;BME280;43755;49.736;8.734;2022-12-18T01:25:28;99047.44;;;-12.21;100.00
11448;BME280;43755;49.736;8.734;2022-12-18T01:27:29;99050.34;;;-12.15;100.00
11448;BME280;43755;49.736;8.734;2022-12-18T01:29:31;99046.00;;;-12.02;100.00
11448;BME280;43755;49.736;8.734;2022-12-18T01:31:33;99043.13;;;-11.94;100.00
11448;BME280;43755;49.736;8.734;2022-12-18T01:33:34;99044.09;;;-11.92;100.00
11448;BME280;43755;49.736;8.734;2022-12-18T01:35:40;99041.94;;;-11.86;100.00
11448;BME280;43755;49.736;8.734;2022-12-18T01:37:41;99051.50;;;-11.96;100.00
11448;BME280;43755;49.736;8.734;2022-12-18T01:39:44;99051.00;;;-12.04;100.00
11448;BME280;43755;49.736;8.734;2022-12-18T01:41:46;99050.53;;;-12.12;100.00
11448;BME280;43755;49.736;8.734;2022-12-18T01:46:41;99065.06;;;-12.24;100.00
11448;BME280;43755;49.736;8.734;2022-12-18T01:48:43;99062.53;;;-12.24;100.00
11448;BME280;43755;49.736;8.734;2022-12-18T01:50:45;99068.34;;;-12.26;100.00
11448;BME280;43755;49.736;8.734;2022-12-18T01:52:51;99071.38;;;-12.32;100.00
11448;BME280;43755;49.736;8.734;2022-12-18T01:54:55;99075.00;;;-12.28;100.00
11448;BME280;43755;49.736;8.734;2022-12-18T01:56:57;99075.59;;;-12.32;100.00
11448;BME280;43755;49.736;8.734;2022-12-18T01:59:01;99065.97;;;-12.36;100.00
11448;BME280;43755;49.736;8.734;2022-12-18T02:01:04;99078.16;;;-12.32;100.00
11448;BME280;43755;49.736;8.734;2022-12-18T02:03:05;99076.75;;;-12.27;100.00
11448;BME280;43755;49.736;8.734;2022-12-18T02:05:07;99070.16;;;-12.24;100.00
11448;BME280;43755;49.736;8.734;2022-12-18T02:07:15;99079.09;;;-12.17;100.00
11448;BME280;43755;49.736;8.734;2022-12-18T02:09:20;99068.47;;;-11.97;100.00
11448;BME280;43755;49.736;8.734;2022-12-18T02:11:32;99061.50;;;-11.99;100.00
11448;BME280;43755;49.736;8.734;2022-12-18T02:13:44;99059.78;;;-11.86;100.00
11448;BME280;43755;49.736;8.734;2022-12-18T02:15:51;99060.31;;;-11.91;100.00
11448;BME280;43755;49.736;8.734;2022-12-18T02:17:58;99058.72;;;-11.89;100.00
11448;BME280;43755;49.736;8.734;2022-12-18T02:20:19;99072.59;;;-11.99;100.00
11448;BME280;43755;49.736;8.734;2022-12-18T02:22:29;99075.09;;;-12.14;100.00
11448;BME280;43755;49.736;8.734;2022-12-18T02:24:42;99067.94;;;-12.19;100.00
11448;BME280;43755;49.736;8.734;2022-12-18T02:26:50;99071.06;;;-12.23;100.00
11448;BME280;43755;49.736;8.734;2022-12-18T02:28:56;99074.38;;;-12.24;100.00
11448;BME280;43755;49.736;8.734;2022-12-18T02:31:02;99065.19;;;-12.22;100.00
11448;BME280;43755;49.736;8.734;2022-12-18T02:33:07;99057.63;;;-12.21;100.00
11448;BME280;43755;49.736;8.734;2022-12-18T02:35:13;99054.38;;;-12.18;100.00
11448;BME280;43755;49.736;8.734;2022-12-18T02:37:18;99051.03;;;-12.17;100.00
11448;BME280;43755;49.736;8.734;2022-12-18T02:39:20;99036.81;;;-12.14;100.00
11448;BME280;43755;49.736;8.734;2022-12-18T02:41:23;99035.31;;;-12.10;100.00
11448;BME280;43755;49.736;8.734;2022-12-18T02:43:26;99033.25;;;-12.02;100.00
11448;BME280;43755;49.736;8.734;2022-12-18T02:45:28;99026.56;;;-12.00;100.00
11448;BME280;43755;49.736;8.734;2022-12-18T02:47:32;99023.31;;;-11.98;100.00
11448;BME280;43755;49.736;8.734;2022-12-18T02:49:38;99018.13;;;-11.99;100.00
11448;BME280;43755;49.736;8.734;2022-12-18T02:51:49;99025.00;;;-11.98;100.00
11448;BME280;43755;49.736;8.734;2022-12-18T02:53:56;99011.44;;;-11.97;100.00
11448;BME280;43755;49.736;8.734;2022-12-18T02:56:05;99012.53;;;-12.07;100.00
11448;BME280;43755;49.736;8.734;2022-12-18T02:58:14;99009.63;;;-12.13;100.00
11448;BME280;43755;49.736;8.734;2022-12-18T03:00:20;99011.97;;;-12.03;100.00
11448;BME280;43755;49.736;8.734;2022-12-18T03:02:26;99014.63;;;-12.01;100.00
11448;BME280;43755;49.736;8.734;2022-12-18T03:04:36;99028.47;;;-12.11;100.00
11448;BME280;43755;49.736;8.734;2022-12-18T03:06:41;99027.78;;;-12.09;100.00
11448;BME280;43755;49.736;8.734;2022-12-18T03:08:49;99025.25;;;-11.94;100.00
11448;BME280;43755;49.736;8.734;2022-12-18T03:10:56;99025.78;;;-11.99;100.00
11448;BME280;43755;49.736;8.734;2022-12-18T03:13:02;99028.06;;;-12.04;100.00
11448;BME280;43755;49.736;8.734;2022-12-18T03:15:09;99040.56;;;-11.94;100.00
11448;BME280;43755;49.736;8.734;2022-12-18T03:17:15;99048.47;;;-11.76;100.00
11448;BME280;43755;49.736;8.734;2022-12-18T03:19:21;99033.38;;;-11.72;100.00
11448;BME280;43755;49.736;8.734;2022-12-18T03:21:28;99040.81;;;-11.76;100.00
11448;BME280;43755;49.736;8.734;2022-12-18T03:23:34;99038.94;;;-11.64;100.00
11448;BME280;43755;49.736;8.734;2022-12-18T03:25:40;99050.31;;;-11.59;100.00
11448;BME280;43755;49.736;8.734;2022-12-18T03:27:46;99046.63;;;-11.64;100.00
11448;BME280;43755;49.736;8.734;2022-12-18T03:29:55;99047.56;;;-11.77;100.00
11448;BME280;43755;49.736;8.734;2022-12-18T03:32:09;99042.56;;;-11.75;100.00
11448;BME280;43755;49.736;8.734;2022-12-18T03:34:16;99052.25;;;-11.84;100.00
11448;BME280;43755;49.736;8.734;2022-12-18T03:36:18;99055.56;;;-11.85;100.00
11448;BME280;43755;49.736;8.734;2022-12-18T03:38:20;99051.53;;;-11.82;100.00
11448;BME280;43755;49.736;8.734;2022-12-18T03:40:25;99057.03;;;-11.89;100.00
11448;BME280;43755;49.736;8.734;2022-12-18T03:42:36;99046.66;;;-11.92;100.00
11448;BME280;43755;49.736;8.734;2022-12-18T03:44:43;99043.59;;;-11.86;100.00
11448;BME280;43755;49.736;8.734;2022-12-18T03:46:52;99032.59;;;-11.71;100.00
11448;BME280;43755;49.736;8.734;2022-12-18T03:49:01;99020.66;;;-11.57;100.00
11448;BME280;43755;49.736;8.734;2022-12-18T03:51:08;99014.78;;;-11.56;100.00
11448;BME280;43755;49.736;8.734;2022-12-18T03:53:20;99020.66;;;-11.57;100.00
11448;BME280;43755;49.736;8.734;2022-12-18T03:55:27;99019.16;;;-11.53;100.00
11448;BME280;43755;49.736;8.734;2022-12-18T03:57:32;99016.09;;;-11.48;100.00
11448;BME280;43755;49.736;8.734;2022-12-18T03:59:35;98998.22;;;-11.48;100.00
11448;BME280;43755;49.736;8.734;2022-12-18T04:01:40;99005.34;;;-11.57;100.00
11448;BME280;43755;49.736;8.734;2022-12-18T04:03:44;99002.94;;;-11.54;100.00
11448;BME280;43755;49.736;8.734;2022-12-18T04:05:49;99020.03;;;-11.53;100.00
11448;BME280;43755;49.736;8.734;2022-12-18T04:07:54;99015.75;;;-11.39;100.00
11448;BME280;43755;49.736;8.734;2022-12-18T04:09:59;99018.63;;;-11.48;100.00
11448;BME280;43755;49.736;8.734;2022-12-18T04:12:02;99029.91;;;-11.59;100.00
11448;BME280;43755;49.736;8.734;2022-12-18T04:14:03;99032.78;;;-11.68;100.00
11448;BME280;43755;49.736;8.734;2022-12-18T04:16:05;99020.38;;;-11.76;100.00
11448;BME280;43755;49.736;8.734;2022-12-18T04:18:07;99032.34;;;-11.75;100.00
11448;BME280;43755;49.736;8.734;2022-12-18T04:20:09;99028.94;;;-11.76;100.00
11448;BME280;43755;49.736;8.734;2022-12-18T04:22:11;99020.81;;;-11.69;100.00
11448;BME280;43755;49.736;8.734;2022-12-18T04:24:14;99024.94;;;-11.71;100.00
11448;BME280;43755;49.736;8.734;2022-12-18T04:26:15;99030.25;;;-11.68;100.00
11448;BME280;43755;49.736;8.734;2022-12-18T04:28:17;99026.19;;;-11.64;100.00
11448;BME280;43755;49.736;8.734;2022-12-18T04:30:18;99016.41;;;-11.71;100.00
11448;BME280;43755;49.736;8.734;2022-12-18T04:32:19;99027.44;;;-11.57;100.00
11448;BME280;43755;49.736;8.734;2022-12-18T04:34:21;99026.03;;;-11.67;100.00
11448;BME280;43755;49.736;8.734;2022-12-18T04:36:23;99018.53;;;-11.79;100.00
11448;BME280;43755;49.736;8.734;2022-12-18T04:38:27;99016.41;;;-11.86;100.00
11448;BME280;43755;49.736;8.734;2022-12-18T04:40:30;99010.38;;;-11.73;100.00
11448;BME280;43755;49.736;8.734;2022-12-18T04:42:31;99002.63;;;-11.75;100.00
11448;BME280;43755;49.736;8.734;2022-12-18T04:44:33;99005.69;;;-11.80;100.00
11448;BME280;43755;49.736;8.734;2022-12-18T04:46:34;99007.97;;;-11.85;100.00
11448;BME280;43755;49.736;8.734;2022-12-18T04:48:36;98997.66;;;-11.86;100.00
11448;BME280;43755;49.736;8.734;2022-12-18T04:50:38;99009.28;;;-11.91;100.00
11448;BME280;43755;49.736;8.734;2022-12-18T04:52:39;99000.00;;;-11.89;100.00
11448;BME280;43755;49.736;8.734;2022-12-18T04:54:40;99002.41;;;-11.92;100.00
11448;BME280;43755;49.736;8.734;2022-12-18T04:56:43;99005.63;;;-11.95;100.00
11448;BME280;43755;49.736;8.734;2022-12-18T04:58:45;98997.81;;;-11.98;100.00
11448;BME280;43755;49.736;8.734;2022-12-18T05:00:46;99004.88;;;-12.07;100.00
11448;BME280;43755;49.736;8.734;2022-12-18T05:02:47;99009.53;;;-12.15;100.00
11448;BME280;43755;49.736;8.734;2022-12-18T05:04:49;99011.72;;;-12.21;100.00
11448;BME280;43755;49.736;8.734;2022-12-18T05:06:50;99006.66;;;-12.06;100.00
11448;BME280;43755;49.736;8.734;2022-12-18T05:08:52;99010.28;;;-12.02;100.00
11448;BME280;43755;49.736;8.734;2022-12-18T05:10:58;99011.19;;;-12.02;100.00
11448;BME280;43755;49.736;8.734;2022-12-18T05:13:01;99022.47;;;-12.12;100.00
11448;BME280;43755;49.736;8.734;2022-12-18T05:15:03;99022.06;;;-12.05;100.00
11448;BME280;43755;49.736;8.734;2022-12-18T05:17:05;99021.75;;;-11.96;100.00
11448;BME280;43755;49.736;8.734;2022-12-18T05:19:06;99025.88;;;-11.98;100.00
11448;BME280;43755;49.736;8.734;2022-12-18T05:21:07;99024.38;;;-11.94;100.00
11448;BME280;43755;49.736;8.734;2022-12-18T05:23:09;99022.66;;;-11.81;100.00
11448;BME280;43755;49.736;8.734;2022-12-18T05:25:10;99025.91;;;-11.69;100.00
11448;BME280;43755;49.736;8.734;2022-12-18T05:27:12;99017.56;;;-11.81;100.00
11448;BME280;43755;49.736;8.734;2022-12-18T05:29:14;99041.31;;;-11.82;100.00
11448;BME280;43755;49.736;8.734;2022-12-18T05:31:16;99032.59;;;-11.85;100.00
11448;BME280;43755;49.736;8.734;2022-12-18T05:33:18;99040.06;;;-11.88;100.00
11448;BME280;43755;49.736;8.734;2022-12-18T05:35:19;99037.34;;;-11.91;100.00
11448;BME280;43755;49.736;8.734;2022-12-18T05:37:20;99035.19;;;-11.98;100.00
11448;BME280;43755;49.736;8.734;2022-12-18T05:39:22;99027.81;;;-11.94;100.00
11448;BME280;43755;49.736;8.734;2022-12-18T05:41:23;99043.31;;;-11.91;100.00
11448;BME280;43755;49.736;8.734;2022-12-18T05:43:26;99042.72;;;-11.87;100.00
11448;BME280;43755;49.736;8.734;2022-12-18T05:45:29;99034.97;;;-11.88;100.00
11448;BME280;43755;49.736;8.734;2022-12-18T05:47:30;99028.03;;;-11.91;100.00
11448;BME280;43755;49.736;8.734;2022-12-18T05:49:32;99032.66;;;-11.98;100.00
11448;BME280;43755;49.736;8.734;2022-12-18T05:51:33;99033.31;;;-12.01;100.00
11448;BME280;43755;49.736;8.734;2022-12-18T05:53:36;99024.63;;;-12.05;100.00
11448;BME280;43755;49.736;8.734;2022-12-18T05:55:39;99026.78;;;-12.11;100.00
11448;BME280;43755;49.736;8.734;2022-12-18T05:57:41;99011.81;;;-12.19;100.00
11448;BME280;43755;49.736;8.734;2022-12-18T05:59:42;99012.59;;;-12.20;100.00
11448;BME280;43755;49.736;8.734;2022-12-18T06:01:45;99009.44;;;-12.16;100.00
11448;BME280;43755;49.736;8.734;2022-12-18T06:03:47;99019.09;;;-12.25;100.00
11448;BME280;43755;49.736;8.734;2022-12-18T06:05:49;99011.75;;;-12.06;100.00
11448;BME280;43755;49.736;8.734;2022-12-18T06:07:51;99016.06;;;-12.05;100.00
11448;BME280;43755;49.736;8.734;2022-12-18T06:09:52;99014.25;;;-12.08;100.00
11448;BME280;43755;49.736;8.734;2022-12-18T06:11:53;99015.81;;;-12.10;100.00
11448;BME280;43755;49.736;8.734;2022-12-18T06:13:56;99024.00;;;-12.00;100.00
11448;BME280;43755;49.736;8.734;2022-12-18T06:15:57;99011.22;;;-11.87;100.00
11448;BME280;43755;49.736;8.734;2022-12-18T06:18:01;99018.22;;;-11.98;100.00
11448;BME280;43755;49.736;8.734;2022-12-18T06:20:03;99022.84;;;-11.78;100.00
11448;BME280;43755;49.736;8.734;2022-12-18T06:22:06;99026.28;;;-11.63;100.00
11448;BME280;43755;49.736;8.734;2022-12-18T06:24:07;99027.25;;;-11.75;100.00
11448;BME280;43755;49.736;8.734;2022-12-18T06:26:10;99030.78;;;-11.73;100.00
11448;BME280;43755;49.736;8.734;2022-12-18T06:28:12;99037.00;;;-11.68;100.00
11448;BME280;43755;49.736;8.734;2022-12-18T06:30:14;99035.00;;;-11.74;100.00
11448;BME280;43755;49.736;8.734;2022-12-18T06:32:15;99040.91;;;-11.75;100.00
11448;BME280;43755;49.736;8.734;2022-12-18T06:34:18;99039.47;;;-11.70;100.00
11448;BME280;43755;49.736;8.734;2022-12-18T06:36:20;99043.31;;;-11.34;100.00
11448;BME280;43755;49.736;8.734;2022-12-18T06:38:21;99046.97;;;-11.58;100.00
11448;BME280;43755;49.736;8.734;2022-12-18T06:40:23;99051.91;;;-11.61;100.00
11448;BME280;43755;49.736;8.734;2022-12-18T06:42:24;99057.34;;;-11.70;100.00
11448;BME280;43755;49.736;8.734;2022-12-18T06:44:26;99060.59;;;-11.72;100.00
11448;BME280;43755;49.736;8.734;2022-12-18T06:46:27;99060.97;;;-11.66;100.00
11448;BME280;43755;49.736;8.734;2022-12-18T06:48:29;99061.75;;;-11.67;100.00
11448;BME280;43755;49.736;8.734;2022-12-18T06:50:32;99061.66;;;-11.69;100.00
11448;BME280;43755;49.736;8.734;2022-12-18T06:52:33;99061.41;;;-11.58;100.00
11448;BME280;43755;49.736;8.734;2022-12-18T06:54:35;99076.63;;;-11.60;100.00
11448;BME280;43755;49.736;8.734;2022-12-18T06:56:36;99077.97;;;-11.67;100.00
11448;BME280;43755;49.736;8.734;2022-12-18T06:58:38;99083.94;;;-11.66;100.00
11448;BME280;43755;49.736;8.734;2022-12-18T07:00:39;99073.13;;;-11.62;100.00
11448;BME280;43755;49.736;8.734;2022-12-18T07:02:41;99084.03;;;-11.79;100.00
11448;BME280;43755;49.736;8.734;2022-12-18T07:04:42;99084.03;;;-11.79;100.00
11448;BME280;43755;49.736;8.734;2022-12-18T07:06:45;99082.63;;;-11.74;100.00
11448;BME280;43755;49.736;8.734;2022-12-18T07:08:47;99081.84;;;-11.73;100.00
11448;BME280;43755;49.736;8.734;2022-12-18T07:10:49;99078.41;;;-11.74;100.00
11448;BME280;43755;49.736;8.734;2022-12-18T07:12:50;99086.31;;;-11.69;100.00
11448;BME280;43755;49.736;8.734;2022-12-18T07:14:52;99079.31;;;-11.72;100.00
11448;BME280;43755;49.736;8.734;2022-12-18T07:16:53;99079.31;;;-11.72;100.00
11448;BME280;43755;49.736;8.734;2022-12-18T07:18:55;99096.34;;;-11.72;100.00
11448;BME280;43755;49.736;8.734;2022-12-18T07:20:56;99099.84;;;-11.70;100.00
11448;BME280;43755;49.736;8.734;2022-12-18T07:23:01;99106.94;;;-11.66;100.00
11448;BME280;43755;49.736;8.734;2022-12-18T07:25:03;99108.28;;;-11.71;100.00
11448;BME280;43755;49.736;8.734;2022-12-18T07:27:05;99105.66;;;-11.73;100.00
11448;BME280;43755;49.736;8.734;2022-12-18T07:29:06;99111.03;;;-11.68;100.00
11448;BME280;43755;49.736;8.734;2022-12-18T07:31:10;99110.44;;;-11.64;100.00
11448;BME280;43755;49.736;8.734;2022-12-18T07:33:12;99094.69;;;-11.57;100.00
11448;BME280;43755;49.736;8.734;2022-12-18T07:35:13;99097.00;;;-11.47;100.00
11448;BME280;43755;49.736;8.734;2022-12-18T07:37:15;99099.84;;;-11.42;100.00
11448;BME280;43755;49.736;8.734;2022-12-18T07:39:17;99103.47;;;-11.39;100.00
11448;BME280;43755;49.736;8.734;2022-12-18T07:41:19;99101.03;;;-11.37;100.00
11448;BME280;43755;49.736;8.734;2022-12-18T07:43:21;99087.72;;;-11.32;100.00
11448;BME280;43755;49.736;8.734;2022-12-18T07:45:22;99097.84;;;-11.33;100.00
11448;BME280;43755;49.736;8.734;2022-12-18T07:47:23;99089.94;;;-11.23;100.00
11448;BME280;43755;49.736;8.734;2022-12-18T07:49:25;99080.44;;;-11.26;100.00
11448;BME280;43755;49.736;8.734;2022-12-18T07:51:27;99078.13;;;-11.21;100.00
11448;BME280;43755;49.736;8.734;2022-12-18T07:53:29;99079.81;;;-11.22;100.00
11448;BME280;43755;49.736;8.734;2022-12-18T07:55:32;99086.41;;;-11.25;100.00
11448;BME280;43755;49.736;8.734;2022-12-18T07:57:34;99086.91;;;-11.31;100.00
11448;BME280;43755;49.736;8.734;2022-12-18T07:59:35;99089.97;;;-11.36;100.00
11448;BME280;43755;49.736;8.734;2022-12-18T08:01:36;99091.72;;;-11.50;100.00
11448;BME280;43755;49.736;8.734;2022-12-18T08:03:39;99095.97;;;-11.50;100.00
11448;BME280;43755;49.736;8.734;2022-12-18T08:05:41;99101.59;;;-11.56;100.00
11448;BME280;43755;49.736;8.734;2022-12-18T08:07:42;99102.53;;;-11.54;100.00
11448;BME280;43755;49.736;8.734;2022-12-18T08:09:44;99101.06;;;-11.50;100.00
11448;BME280;43755;49.736;8.734;2022-12-18T08:11:46;99111.56;;;-11.46;100.00
11448;BME280;43755;49.736;8.734;2022-12-18T08:13:48;99103.09;;;-11.45;100.00
11448;BME280;43755;49.736;8.734;2022-12-18T08:15:55;99105.13;;;-11.39;100.00
11448;BME280;43755;49.736;8.734;2022-12-18T08:17:57;99111.66;;;-11.30;100.00
11448;BME280;43755;49.736;8.734;2022-12-18T08:19:58;99108.59;;;-11.24;100.00
11448;BME280;43755;49.736;8.734;2022-12-18T08:22:00;99114.53;;;-11.10;100.00
11448;BME280;43755;49.736;8.734;2022-12-18T08:24:01;99116.75;;;-11.02;100.00
11448;BME280;43755;49.736;8.734;2022-12-18T08:26:03;99123.44;;;-10.89;100.00
11448;BME280;43755;49.736;8.734;2022-12-18T08:28:05;99112.00;;;-10.81;100.00
11448;BME280;43755;49.736;8.734;2022-12-18T08:30:08;99104.78;;;-10.73;100.00
11448;BME280;43755;49.736;8.734;2022-12-18T08:32:10;99106.00;;;-10.52;100.00
11448;BME280;43755;49.736;8.734;2022-12-18T08:34:11;99106.53;;;-10.43;100.00
11448;BME280;43755;49.736;8.734;2022-12-18T08:36:13;99103.25;;;-10.41;100.00
11448;BME280;43755;49.736;8.734;2022-12-18T08:38:14;99106.34;;;-10.31;100.00
11448;BME280;43755;49.736;8.734;2022-12-18T08:40:16;99108.94;;;-10.30;100.00
11448;BME280;43755;49.736;8.734;2022-12-18T08:42:17;99106.69;;;-10.25;100.00
11448;BME280;43755;49.736;8.734;2022-12-18T08:44:37;99103.78;;;-10.15;100.00
11448;BME280;43755;49.736;8.734;2022-12-18T08:46:41;99102.53;;;-10.07;100.00
11448;BME280;43755;49.736;8.734;2022-12-18T08:48:43;99099.44;;;-10.02;100.00
11448;BME280;43755;49.736;8.734;2022-12-18T08:50:53;99089.34;;;-9.99;100.00
11448;BME280;43755;49.736;8.734;2022-12-18T08:52:55;99087.91;;;-9.94;100.00
11448;BME280;43755;49.736;8.734;2022-12-18T08:54:56;99073.94;;;-9.84;100.00
11448;BME280;43755;49.736;8.734;2022-12-18T08:56:57;99079.47;;;-9.76;100.00
11448;BME280;43755;49.736;8.734;2022-12-18T08:58:59;99073.88;;;-9.69;100.00
11448;BME280;43755;49.736;8.734;2022-12-18T09:01:02;99073.50;;;-9.61;100.00
11448;BME280;43755;49.736;8.734;2022-12-18T09:03:03;99081.09;;;-9.62;100.00
11448;BME280;43755;49.736;8.734;2022-12-18T09:05:05;99081.31;;;-9.58;100.00
11448;BME280;43755;49.736;8.734;2022-12-18T09:07:07;99082.06;;;-9.44;100.00
11448;BME280;43755;49.736;8.734;2022-12-18T09:09:09;99078.19;;;-9.36;100.00
11448;BME280;43755;49.736;8.734;2022-12-18T09:11:14;99076.91;;;-9.28;100.00
11448;BME280;43755;49.736;8.734;2022-12-18T09:13:16;99058.31;;;-9.24;100.00
11448;BME280;43755;49.736;8.734;2022-12-18T09:15:18;99063.19;;;-9.12;100.00
11448;BME280;43755;49.736;8.734;2022-12-18T09:17:20;99062.63;;;-9.06;100.00
11448;BME280;43755;49.736;8.734;2022-12-18T09:19:22;99049.53;;;-8.95;100.00
11448;BME280;43755;49.736;8.734;2022-12-18T09:21:23;99056.31;;;-8.79;100.00
11448;BME280;43755;49.736;8.734;2022-12-18T09:23:24;99061.38;;;-8.63;100.00
11448;BME280;43755;49.736;8.734;2022-12-18T09:25:26;99060.97;;;-8.54;100.00
11448;BME280;43755;49.736;8.734;2022-12-18T09:27:31;99073.63;;;-8.40;100.00
11448;BME280;43755;49.736;8.734;2022-12-18T09:29:33;99081.00;;;-8.28;100.00
11448;BME280;43755;49.736;8.734;2022-12-18T09:31:35;99086.44;;;-8.22;100.00
11448;BME280;43755;49.736;8.734;2022-12-18T09:33:38;99081.59;;;-8.16;100.00
11448;BME280;43755;49.736;8.734;2022-12-18T09:35:41;99090.91;;;-8.00;100.00
11448;BME280;43755;49.736;8.734;2022-12-18T09:37:43;99083.84;;;-7.87;100.00
11448;BME280;43755;49.736;8.734;2022-12-18T09:39:44;99089.34;;;-7.79;100.00
11448;BME280;43755;49.736;8.734;2022-12-18T09:41:47;99086.13;;;-7.93;100.00
11448;BME280;43755;49.736;8.734;2022-12-18T09:43:56;99093.81;;;-7.93;100.00
11448;BME280;43755;49.736;8.734;2022-12-18T09:46:03;99089.66;;;-7.91;100.00
11448;BME280;43755;49.736;8.734;2022-12-18T09:48:09;99094.31;;;-7.82;100.00
11448;BME280;43755;49.736;8.734;2022-12-18T09:50:24;99094.09;;;-7.69;100.00
11448;BME280;43755;49.736;8.734;2022-12-18T09:52:32;99091.88;;;-7.61;100.00
11448;BME280;43755;49.736;8.734;2022-12-18T09:54:37;99085.97;;;-7.59;100.00
11448;BME280;43755;49.736;8.734;2022-12-18T09:56:47;99087.00;;;-7.36;100.00
11448;BME280;43755;49.736;8.734;2022-12-18T09:58:52;99090.84;;;-7.46;100.00
11448;BME280;43755;49.736;8.734;2022-12-18T10:00:55;99091.69;;;-7.27;100.00
11448;BME280;43755;49.736;8.734;2022-12-18T10:03:00;99100.41;;;-7.05;100.00
11448;BME280;43755;49.736;8.734;2022-12-18T10:05:05;99101.19;;;-6.86;100.00
11448;BME280;43755;49.736;8.734;2022-12-18T10:07:17;99103.75;;;-7.07;100.00
11448;BME280;43755;49.736;8.734;2022-12-18T10:09:28;99093.50;;;-7.06;100.00
11448;BME280;43755;49.736;8.734;2022-12-18T10:11:40;99099.50;;;-6.86;100.00
11448;BME280;43755;49.736;8.734;2022-12-18T10:13:49;99094.31;;;-6.67;100.00
11448;BME280;43755;49.736;8.734;2022-12-18T10:16:00;99097.78;;;-6.66;100.00
11448;BME280;43755;49.736;8.734;2022-12-18T10:18:13;99097.41;;;-6.54;100.00
11448;BME280;43755;49.736;8.734;2022-12-18T10:20:24;99091.69;;;-6.27;100.00
11448;BME280;43755;49.736;8.734;2022-12-18T10:22:41;99095.91;;;-6.06;100.00
11448;BME280;43755;49.736;8.734;2022-12-18T10:24:50;99109.78;;;-6.25;100.00
11448;BME280;43755;49.736;8.734;2022-12-18T10:26:55;99095.31;;;-6.22;100.00
11448;BME280;43755;49.736;8.734;2022-12-18T10:29:08;99093.34;;;-6.06;100.00
11448;BME280;43755;49.736;8.734;2022-12-18T10:31:14;99086.78;;;-5.76;100.00
11448;BME280;43755;49.736;8.734;2022-12-18T10:33:20;99090.13;;;-5.79;100.00
11448;BME280;43755;49.736;8.734;2022-12-18T10:35:24;99072.91;;;-5.57;100.00
11448;BME280;43755;49.736;8.734;2022-12-18T10:37:29;99076.19;;;-5.61;100.00
11448;BME280;43755;49.736;8.734;2022-12-18T10:39:32;99074.25;;;-5.67;100.00
11448;BME280;43755;49.736;8.734;2022-12-18T10:41:33;99067.50;;;-5.63;100.00
11448;BME280;43755;49.736;8.734;2022-12-18T10:43:36;99058.59;;;-5.49;100.00